sensor_id;sensor_type;location;lat;lon;timestamp;temperature;humidity
40085;DHT22;25786;51.504;7.344;2022-11-20T00:01:18;-3275.70;79.40
40085;DHT22;25786;51.504;7.344;2022-11-20T00:03:43;-3275.80;79.50
40085;DHT22;25786;51.504;7.344;2022-11-20T00:06:10;-3275.70;79.50
40085;DHT22;25786;51.504;7.344;2022-11-20T00:08:36;-3275.70;79.50
40085;DHT22;25786;51.504;7.344;2022-11-20T00:11:05;-3275.60;79.90
40085;DHT22;25786;51.504;7.344;2022-11-20T00:13:31;-3275.80;79.70
40085;DHT22;25786;51.504;7.344;2022-11-20T00:15:57;-3275.80;79.80
40085;DHT22;25786;51.504;7.344;2022-11-20T00:18:23;-3275.80;80.00
40085;DHT22;25786;51.504;7.344;2022-11-20T00:20:49;-3275.90;80.00
40085;DHT22;25786;51.504;7.344;2022-11-20T00:23:14;-3275.90;80.00
40085;DHT22;25786;51.504;7.344;2022-11-20T00:25:40;-3275.90;80.10
40085;DHT22;25786;51.504;7.344;2022-11-20T00:28:05;-3275.80;80.10
40085;DHT22;25786;51.504;7.344;2022-11-20T00:30:31;-3276.00;80.30
40085;DHT22;25786;51.504;7.344;2022-11-20T00:32:56;-3276.00;80.20
40085;DHT22;25786;51.504;7.344;2022-11-20T00:35:22;-3276.00;80.20
40085;DHT22;25786;51.504;7.344;2022-11-20T00:37:47;-3276.20;80.20
40085;DHT22;25786;51.504;7.344;2022-11-20T00:40:13;-3276.40;80.00
40085;DHT22;25786;51.504;7.344;2022-11-20T00:42:38;-3276.50;80.40
40085;DHT22;25786;51.504;7.344;2022-11-20T00:45:04;-3276.50;80.10
40085;DHT22;25786;51.504;7.344;2022-11-20T00:47:30;-3276.60;79.90
40085;DHT22;25786;51.504;7.344;2022-11-20T00:49:55;-3276.60;79.80
40085;DHT22;25786;51.504;7.344;2022-11-20T00:52:21;-3276.50;79.70
40085;DHT22;25786;51.504;7.344;2022-11-20T00:54:46;-3276.60;80.10
40085;DHT22;25786;51.504;7.344;2022-11-20T00:57:11;-3276.60;80.00
40085;DHT22;25786;51.504;7.344;2022-11-20T00:59:37;-3276.60;79.40
40085;DHT22;25786;51.504;7.344;2022-11-20T01:02:02;-3276.50;79.40
40085;DHT22;25786;51.504;7.344;2022-11-20T01:04:28;-3276.50;79.60
40085;DHT22;25786;51.504;7.344;2022-11-20T01:06:53;-3276.40;80.10
40085;DHT22;25786;51.504;7.344;2022-11-20T01:09:19;-3276.40;80.30
40085;DHT22;25786;51.504;7.344;2022-11-20T01:11:44;-3276.50;80.10
40085;DHT22;25786;51.504;7.344;2022-11-20T01:14:11;-3276.50;80.00
40085;DHT22;25786;51.504;7.344;2022-11-20T01:16:38;-3276.50;80.20
40085;DHT22;25786;51.504;7.344;2022-11-20T01:19:05;-3276.40;80.00
40085;DHT22;25786;51.504;7.344;2022-11-20T01:21:32;-3276.40;80.00
40085;DHT22;25786;51.504;7.344;2022-11-20T01:23:58;-3276.20;80.50
40085;DHT22;25786;51.504;7.344;2022-11-20T01:26:25;-3276.40;80.90
40085;DHT22;25786;51.504;7.344;2022-11-20T01:28:51;-3276.50;80.80
40085;DHT22;25786;51.504;7.344;2022-11-20T01:31:17;-3276.60;80.30
40085;DHT22;25786;51.504;7.344;2022-11-20T01:33:43;-3276.60;80.30
40085;DHT22;25786;51.504;7.344;2022-11-20T01:36:09;-3276.60;80.50
40085;DHT22;25786;51.504;7.344;2022-11-20T01:38:35;-3276.50;80.40
40085;DHT22;25786;51.504;7.344;2022-11-20T01:41:00;-3276.50;80.80
40085;DHT22;25786;51.504;7.344;2022-11-20T01:43:26;-3276.50;80.60
40085;DHT22;25786;51.504;7.344;2022-11-20T01:45:59;-3276.20;80.80
40085;DHT22;25786;51.504;7.344;2022-11-20T01:48:27;-3276.20;81.50
40085;DHT22;25786;51.504;7.344;2022-11-20T01:50:54;-3276.20;81.70
40085;DHT22;25786;51.504;7.344;2022-11-20T01:53:21;-3276.20;81.80
40085;DHT22;25786;51.504;7.344;2022-11-20T01:55:50;-3276.20;81.70
40085;DHT22;25786;51.504;7.344;2022-11-20T01:58:18;-3276.20;81.40
40085;DHT22;25786;51.504;7.344;2022-11-20T02:00:45;-3276.20;81.50
40085;DHT22;25786;51.504;7.344;2022-11-20T02:03:11;-3276.20;81.60
40085;DHT22;25786;51.504;7.344;2022-11-20T02:05:51;-3276.20;81.80
40085;DHT22;25786;51.504;7.344;2022-11-20T02:08:19;-3276.40;81.80
40085;DHT22;25786;51.504;7.344;2022-11-20T02:10:44;-3276.50;82.00
40085;DHT22;25786;51.504;7.344;2022-11-20T02:13:10;-3276.60;81.90
40085;DHT22;25786;51.504;7.344;2022-11-20T02:15:54;-3276.60;81.70
40085;DHT22;25786;51.504;7.344;2022-11-20T02:18:20;-3276.70;81.50
40085;DHT22;25786;51.504;7.344;2022-11-20T02:20:46;0.00;81.90
40085;DHT22;25786;51.504;7.344;2022-11-20T02:23:12;0.00;81.40
40085;DHT22;25786;51.504;7.344;2022-11-20T02:25:42;0.30;81.20
40085;DHT22;25786;51.504;7.344;2022-11-20T02:28:08;0.20;80.90
40085;DHT22;25786;51.504;7.344;2022-11-20T02:30:33;0.20;80.80
40085;DHT22;25786;51.504;7.344;2022-11-20T02:32:59;0.30;80.90
40085;DHT22;25786;51.504;7.344;2022-11-20T02:37:51;0.10;80.70
40085;DHT22;25786;51.504;7.344;2022-11-20T02:40:18;0.00;80.80
40085;DHT22;25786;51.504;7.344;2022-11-20T02:42:43;0.00;81.50
40085;DHT22;25786;51.504;7.344;2022-11-20T02:45:09;0.00;82.10
40085;DHT22;25786;51.504;7.344;2022-11-20T02:47:34;0.00;82.20
40085;DHT22;25786;51.504;7.344;2022-11-20T02:50:00;0.10;82.20
40085;DHT22;25786;51.504;7.344;2022-11-20T02:52:26;0.10;81.90
40085;DHT22;25786;51.504;7.344;2022-11-20T02:54:51;0.10;81.50
40085;DHT22;25786;51.504;7.344;2022-11-20T02:57:17;0.00;81.60
40085;DHT22;25786;51.504;7.344;2022-11-20T02:59:42;0.10;82.20
40085;DHT22;25786;51.504;7.344;2022-11-20T03:02:08;0.20;82.10
40085;DHT22;25786;51.504;7.344;2022-11-20T03:04:33;0.20;82.50
40085;DHT22;25786;51.504;7.344;2022-11-20T03:06:59;0.30;82.20
40085;DHT22;25786;51.504;7.344;2022-11-20T03:09:24;0.30;82.50
40085;DHT22;25786;51.504;7.344;2022-11-20T03:11:49;0.30;82.00
40085;DHT22;25786;51.504;7.344;2022-11-20T03:14:15;0.30;82.00
40085;DHT22;25786;51.504;7.344;2022-11-20T03:16:40;0.40;82.50
40085;DHT22;25786;51.504;7.344;2022-11-20T03:19:06;0.50;82.30
40085;DHT22;25786;51.504;7.344;2022-11-20T03:21:35;0.60;81.90
40085;DHT22;25786;51.504;7.344;2022-11-20T03:24:00;0.70;81.70
40085;DHT22;25786;51.504;7.344;2022-11-20T03:26:26;0.80;81.60
40085;DHT22;25786;51.504;7.344;2022-11-20T03:28:53;0.80;81.30
40085;DHT22;25786;51.504;7.344;2022-11-20T03:31:20;0.90;81.30
40085;DHT22;25786;51.504;7.344;2022-11-20T03:33:46;0.90;80.90
40085;DHT22;25786;51.504;7.344;2022-11-20T03:36:13;0.90;81.70
40085;DHT22;25786;51.504;7.344;2022-11-20T03:38:39;1.00;81.90
40085;DHT22;25786;51.504;7.344;2022-11-20T03:41:06;1.00;81.70
40085;DHT22;25786;51.504;7.344;2022-11-20T03:43:32;1.20;80.80
40085;DHT22;25786;51.504;7.344;2022-11-20T03:45:58;1.20;81.10
40085;DHT22;25786;51.504;7.344;2022-11-20T03:48:23;1.20;80.60
40085;DHT22;25786;51.504;7.344;2022-11-20T03:50:49;1.10;80.90
40085;DHT22;25786;51.504;7.344;2022-11-20T03:53:15;1.00;80.80
40085;DHT22;25786;51.504;7.344;2022-11-20T03:55:40;1.00;81.40
40085;DHT22;25786;51.504;7.344;2022-11-20T03:58:06;0.90;81.40
40085;DHT22;25786;51.504;7.344;2022-11-20T04:00:31;0.80;81.90
40085;DHT22;25786;51.504;7.344;2022-11-20T04:03:00;0.80;82.00
40085;DHT22;25786;51.504;7.344;2022-11-20T04:05:25;0.70;82.00
40085;DHT22;25786;51.504;7.344;2022-11-20T04:07:51;0.70;82.50
40085;DHT22;25786;51.504;7.344;2022-11-20T04:10:16;0.70;82.80
40085;DHT22;25786;51.504;7.344;2022-11-20T04:12:42;0.80;82.60
40085;DHT22;25786;51.504;7.344;2022-11-20T04:15:07;0.80;82.50
40085;DHT22;25786;51.504;7.344;2022-11-20T04:17:33;0.70;82.10
40085;DHT22;25786;51.504;7.344;2022-11-20T04:19:58;0.70;82.40
40085;DHT22;25786;51.504;7.344;2022-11-20T04:22:24;0.70;82.50
40085;DHT22;25786;51.504;7.344;2022-11-20T04:24:49;0.70;82.40
40085;DHT22;25786;51.504;7.344;2022-11-20T04:27:15;0.60;82.40
40085;DHT22;25786;51.504;7.344;2022-11-20T04:29:40;0.60;82.60
40085;DHT22;25786;51.504;7.344;2022-11-20T04:32:06;0.60;82.60
40085;DHT22;25786;51.504;7.344;2022-11-20T04:34:31;0.60;82.70
40085;DHT22;25786;51.504;7.344;2022-11-20T04:36:57;0.60;83.10
40085;DHT22;25786;51.504;7.344;2022-11-20T04:39:22;0.60;83.00
40085;DHT22;25786;51.504;7.344;2022-11-20T04:41:47;0.60;83.40
40085;DHT22;25786;51.504;7.344;2022-11-20T04:44:13;0.70;83.50
40085;DHT22;25786;51.504;7.344;2022-11-20T04:46:39;0.70;83.40
40085;DHT22;25786;51.504;7.344;2022-11-20T04:49:05;0.80;83.30
40085;DHT22;25786;51.504;7.344;2022-11-20T04:51:31;0.80;83.20
40085;DHT22;25786;51.504;7.344;2022-11-20T04:53:56;0.80;83.00
40085;DHT22;25786;51.504;7.344;2022-11-20T04:56:22;0.80;83.20
40085;DHT22;25786;51.504;7.344;2022-11-20T04:58:47;0.90;83.10
40085;DHT22;25786;51.504;7.344;2022-11-20T05:01:17;0.90;82.70
40085;DHT22;25786;51.504;7.344;2022-11-20T05:03:43;0.80;82.60
40085;DHT22;25786;51.504;7.344;2022-11-20T05:06:10;0.80;82.90
40085;DHT22;25786;51.504;7.344;2022-11-20T05:08:35;0.90;83.00
40085;DHT22;25786;51.504;7.344;2022-11-20T05:11:02;0.80;82.90
40085;DHT22;25786;51.504;7.344;2022-11-20T05:13:27;0.80;82.70
40085;DHT22;25786;51.504;7.344;2022-11-20T05:15:53;0.70;82.80
40085;DHT22;25786;51.504;7.344;2022-11-20T05:18:18;0.70;83.10
40085;DHT22;25786;51.504;7.344;2022-11-20T05:20:44;0.80;83.30
40085;DHT22;25786;51.504;7.344;2022-11-20T05:23:09;0.80;83.80
40085;DHT22;25786;51.504;7.344;2022-11-20T05:25:34;0.90;83.60
40085;DHT22;25786;51.504;7.344;2022-11-20T05:28:00;1.00;83.40
40085;DHT22;25786;51.504;7.344;2022-11-20T05:30:25;1.10;83.30
40085;DHT22;25786;51.504;7.344;2022-11-20T05:32:51;1.10;83.20
40085;DHT22;25786;51.504;7.344;2022-11-20T05:35:16;1.10;82.80
40085;DHT22;25786;51.504;7.344;2022-11-20T05:37:41;1.10;82.90
40085;DHT22;25786;51.504;7.344;2022-11-20T05:40:07;1.00;83.10
40085;DHT22;25786;51.504;7.344;2022-11-20T05:42:33;1.00;83.30
40085;DHT22;25786;51.504;7.344;2022-11-20T05:44:59;0.90;83.30
40085;DHT22;25786;51.504;7.344;2022-11-20T05:47:25;0.80;83.30
40085;DHT22;25786;51.504;7.344;2022-11-20T05:49:51;0.70;83.50
40085;DHT22;25786;51.504;7.344;2022-11-20T05:52:16;0.70;83.70
40085;DHT22;25786;51.504;7.344;2022-11-20T05:54:42;0.60;83.70
40085;DHT22;25786;51.504;7.344;2022-11-20T05:57:07;0.70;83.70
40085;DHT22;25786;51.504;7.344;2022-11-20T05:59:32;0.60;83.80
40085;DHT22;25786;51.504;7.344;2022-11-20T06:01:58;0.60;84.20
40085;DHT22;25786;51.504;7.344;2022-11-20T06:04:23;0.60;84.10
40085;DHT22;25786;51.504;7.344;2022-11-20T06:06:49;0.60;84.00
40085;DHT22;25786;51.504;7.344;2022-11-20T06:09:14;0.50;84.30
40085;DHT22;25786;51.504;7.344;2022-11-20T06:11:40;0.50;84.20
40085;DHT22;25786;51.504;7.344;2022-11-20T06:14:05;0.50;84.30
40085;DHT22;25786;51.504;7.344;2022-11-20T06:16:31;0.50;84.30
40085;DHT22;25786;51.504;7.344;2022-11-20T06:18:56;0.50;84.30
40085;DHT22;25786;51.504;7.344;2022-11-20T06:21:22;0.50;84.30
40085;DHT22;25786;51.504;7.344;2022-11-20T06:23:48;0.50;84.10
40085;DHT22;25786;51.504;7.344;2022-11-20T06:26:14;0.40;84.20
40085;DHT22;25786;51.504;7.344;2022-11-20T06:28:40;0.40;84.50
40085;DHT22;25786;51.504;7.344;2022-11-20T06:31:06;0.50;84.30
40085;DHT22;25786;51.504;7.344;2022-11-20T06:33:31;0.40;84.10
40085;DHT22;25786;51.504;7.344;2022-11-20T06:35:57;0.40;84.30
40085;DHT22;25786;51.504;7.344;2022-11-20T06:38:24;0.40;84.10
40085;DHT22;25786;51.504;7.344;2022-11-20T06:40:49;0.50;84.00
40085;DHT22;25786;51.504;7.344;2022-11-20T06:43:15;0.40;83.90
40085;DHT22;25786;51.504;7.344;2022-11-20T06:45:40;0.30;84.20
40085;DHT22;25786;51.504;7.344;2022-11-20T06:48:05;0.40;84.10
40085;DHT22;25786;51.504;7.344;2022-11-20T06:50:31;0.40;83.80
40085;DHT22;25786;51.504;7.344;2022-11-20T06:52:59;0.30;83.70
40085;DHT22;25786;51.504;7.344;2022-11-20T06:55:25;0.30;83.70
40085;DHT22;25786;51.504;7.344;2022-11-20T06:57:50;0.30;83.60
40085;DHT22;25786;51.504;7.344;2022-11-20T07:00:16;0.20;83.40
40085;DHT22;25786;51.504;7.344;2022-11-20T07:02:41;0.10;83.80
40085;DHT22;25786;51.504;7.344;2022-11-20T07:05:06;0.10;83.70
40085;DHT22;25786;51.504;7.344;2022-11-20T07:07:32;0.20;83.50
40085;DHT22;25786;51.504;7.344;2022-11-20T07:09:57;0.10;83.50
40085;DHT22;25786;51.504;7.344;2022-11-20T07:12:23;0.00;83.50
40085;DHT22;25786;51.504;7.344;2022-11-20T07:14:48;0.00;84.00
40085;DHT22;25786;51.504;7.344;2022-11-20T07:17:14;0.00;84.20
40085;DHT22;25786;51.504;7.344;2022-11-20T07:19:39;0.10;84.40
40085;DHT22;25786;51.504;7.344;2022-11-20T07:22:04;0.10;84.30
40085;DHT22;25786;51.504;7.344;2022-11-20T07:24:30;0.10;84.10
40085;DHT22;25786;51.504;7.344;2022-11-20T07:26:55;0.10;84.10
40085;DHT22;25786;51.504;7.344;2022-11-20T07:29:21;0.00;84.20
40085;DHT22;25786;51.504;7.344;2022-11-20T07:31:46;0.10;84.60
40085;DHT22;25786;51.504;7.344;2022-11-20T07:34:12;0.30;84.30
40085;DHT22;25786;51.504;7.344;2022-11-20T07:36:37;0.20;84.20
40085;DHT22;25786;51.504;7.344;2022-11-20T07:39:03;0.30;83.90
40085;DHT22;25786;51.504;7.344;2022-11-20T07:41:28;0.30;84.10
40085;DHT22;25786;51.504;7.344;2022-11-20T07:43:54;0.30;84.00
40085;DHT22;25786;51.504;7.344;2022-11-20T07:46:19;0.20;83.70
40085;DHT22;25786;51.504;7.344;2022-11-20T07:48:47;0.30;83.90
40085;DHT22;25786;51.504;7.344;2022-11-20T07:51:13;0.20;83.90
40085;DHT22;25786;51.504;7.344;2022-11-20T07:53:38;0.20;84.20
40085;DHT22;25786;51.504;7.344;2022-11-20T07:56:04;0.20;84.40
40085;DHT22;25786;51.504;7.344;2022-11-20T07:58:30;0.20;84.80
40085;DHT22;25786;51.504;7.344;2022-11-20T08:00:58;0.30;84.40
40085;DHT22;25786;51.504;7.344;2022-11-20T08:03:23;0.30;84.70
40085;DHT22;25786;51.504;7.344;2022-11-20T08:05:49;0.40;84.90
40085;DHT22;25786;51.504;7.344;2022-11-20T08:08:14;0.30;84.60
40085;DHT22;25786;51.504;7.344;2022-11-20T08:10:40;0.40;84.50
40085;DHT22;25786;51.504;7.344;2022-11-20T08:13:05;0.40;84.20
40085;DHT22;25786;51.504;7.344;2022-11-20T08:15:52;0.30;84.40
40085;DHT22;25786;51.504;7.344;2022-11-20T08:18:18;0.40;84.70
40085;DHT22;25786;51.504;7.344;2022-11-20T08:23:54;0.40;85.00
40085;DHT22;25786;51.504;7.344;2022-11-20T08:26:20;0.40;85.20
40085;DHT22;25786;51.504;7.344;2022-11-20T08:28:46;0.50;84.90
40085;DHT22;25786;51.504;7.344;2022-11-20T08:31:23;0.50;84.90
40085;DHT22;25786;51.504;7.344;2022-11-20T08:34:15;0.50;84.80
40085;DHT22;25786;51.504;7.344;2022-11-20T08:36:40;0.50;84.90
40085;DHT22;25786;51.504;7.344;2022-11-20T08:39:06;0.40;85.10
40085;DHT22;25786;51.504;7.344;2022-11-20T08:41:42;0.50;85.80
40085;DHT22;25786;51.504;7.344;2022-11-20T08:44:14;0.50;85.80
40085;DHT22;25786;51.504;7.344;2022-11-20T08:46:40;0.60;85.80
40085;DHT22;25786;51.504;7.344;2022-11-20T08:49:13;0.60;85.80
40085;DHT22;25786;51.504;7.344;2022-11-20T08:54:57;0.80;86.20
40085;DHT22;25786;51.504;7.344;2022-11-20T08:57:23;0.90;86.10
40085;DHT22;25786;51.504;7.344;2022-11-20T08:59:48;0.90;86.20
40085;DHT22;25786;51.504;7.344;2022-11-20T09:02:14;1.00;86.20
40085;DHT22;25786;51.504;7.344;2022-11-20T09:07:41;1.10;86.20
40085;DHT22;25786;51.504;7.344;2022-11-20T09:10:07;1.20;86.30
40085;DHT22;25786;51.504;7.344;2022-11-20T09:12:38;1.30;86.40
40085;DHT22;25786;51.504;7.344;2022-11-20T09:21:24;1.40;86.40
40085;DHT22;25786;51.504;7.344;2022-11-20T09:27:03;1.60;86.50
40085;DHT22;25786;51.504;7.344;2022-11-20T09:29:28;1.80;86.50
40085;DHT22;25786;51.504;7.344;2022-11-20T09:31:54;1.90;86.20
40085;DHT22;25786;51.504;7.344;2022-11-20T09:34:19;1.90;86.60
40085;DHT22;25786;51.504;7.344;2022-11-20T09:36:45;2.00;86.50
40085;DHT22;25786;51.504;7.344;2022-11-20T09:39:10;2.00;86.50
40085;DHT22;25786;51.504;7.344;2022-11-20T09:41:42;2.10;85.40
40085;DHT22;25786;51.504;7.344;2022-11-20T09:44:21;2.10;85.70
40085;DHT22;25786;51.504;7.344;2022-11-20T09:47:00;2.20;84.10
40085;DHT22;25786;51.504;7.344;2022-11-20T09:51:59;2.40;83.70
40085;DHT22;25786;51.504;7.344;2022-11-20T09:54:35;2.50;83.80
40085;DHT22;25786;51.504;7.344;2022-11-20T09:57:19;2.60;83.40
40085;DHT22;25786;51.504;7.344;2022-11-20T09:59:50;2.60;83.10
40085;DHT22;25786;51.504;7.344;2022-11-20T10:05:39;2.80;82.50
40085;DHT22;25786;51.504;7.344;2022-11-20T10:08:25;3.00;81.50
40085;DHT22;25786;51.504;7.344;2022-11-20T10:15:01;3.30;79.30
40085;DHT22;25786;51.504;7.344;2022-11-20T10:29:19;4.00;75.80
40085;DHT22;25786;51.504;7.344;2022-11-20T10:34:54;4.30;74.90
40085;DHT22;25786;51.504;7.344;2022-11-20T10:40:49;4.30;74.80
40085;DHT22;25786;51.504;7.344;2022-11-20T10:46:28;4.40;74.90
40085;DHT22;25786;51.504;7.344;2022-11-20T11:01:21;5.20;72.60
40085;DHT22;25786;51.504;7.344;2022-11-20T11:04:00;5.20;72.30
40085;DHT22;25786;51.504;7.344;2022-11-20T11:06:42;5.10;73.40
40085;DHT22;25786;51.504;7.344;2022-11-20T11:21:38;4.90;73.20
40085;DHT22;25786;51.504;7.344;2022-11-20T11:36:30;4.50;74.30
40085;DHT22;25786;51.504;7.344;2022-11-20T11:38:57;4.60;75.10
40085;DHT22;25786;51.504;7.344;2022-11-20T11:41:25;4.70;75.00
40085;DHT22;25786;51.504;7.344;2022-11-20T11:43:56;4.60;74.30
40085;DHT22;25786;51.504;7.344;2022-11-20T11:46:59;4.80;74.80
40085;DHT22;25786;51.504;7.344;2022-11-20T11:49:25;5.00;74.00
40085;DHT22;25786;51.504;7.344;2022-11-20T11:52:00;5.10;74.60
40085;DHT22;25786;51.504;7.344;2022-11-20T11:57:16;5.00;73.30
40085;DHT22;25786;51.504;7.344;2022-11-20T11:59:45;4.90;73.30
40085;DHT22;25786;51.504;7.344;2022-11-20T12:02:15;4.90;73.80
40085;DHT22;25786;51.504;7.344;2022-11-20T12:04:50;4.80;74.20
40085;DHT22;25786;51.504;7.344;2022-11-20T12:07:37;4.90;74.10
40085;DHT22;25786;51.504;7.344;2022-11-20T12:10:04;5.00;73.60
40085;DHT22;25786;51.504;7.344;2022-11-20T12:12:50;5.10;74.60
40085;DHT22;25786;51.504;7.344;2022-11-20T12:15:21;5.30;75.20
40085;DHT22;25786;51.504;7.344;2022-11-20T12:17:47;5.30;73.70
40085;DHT22;25786;51.504;7.344;2022-11-20T12:20:13;5.30;73.80
40085;DHT22;25786;51.504;7.344;2022-11-20T12:25:34;4.90;72.90
40085;DHT22;25786;51.504;7.344;2022-11-20T12:28:08;4.80;75.00
40085;DHT22;25786;51.504;7.344;2022-11-20T12:30:39;4.70;74.70
40085;DHT22;25786;51.504;7.344;2022-11-20T12:40:44;5.00;74.50
40085;DHT22;25786;51.504;7.344;2022-11-20T12:43:19;4.80;74.80
40085;DHT22;25786;51.504;7.344;2022-11-20T12:48:41;4.80;74.20
40085;DHT22;25786;51.504;7.344;2022-11-20T12:58:40;4.60;75.60
40085;DHT22;25786;51.504;7.344;2022-11-20T13:06:49;4.60;76.40
40085;DHT22;25786;51.504;7.344;2022-11-20T13:09:16;4.50;76.30
40085;DHT22;25786;51.504;7.344;2022-11-20T13:14:42;4.60;76.80
40085;DHT22;25786;51.504;7.344;2022-11-20T13:17:16;4.60;75.60
40085;DHT22;25786;51.504;7.344;2022-11-20T13:19:52;4.50;76.10
40085;DHT22;25786;51.504;7.344;2022-11-20T13:22:28;4.40;75.80
40085;DHT22;25786;51.504;7.344;2022-11-20T13:24:54;4.50;76.40
40085;DHT22;25786;51.504;7.344;2022-11-20T13:27:23;4.50;76.30
40085;DHT22;25786;51.504;7.344;2022-11-20T13:29:58;4.50;75.90
40085;DHT22;25786;51.504;7.344;2022-11-20T13:32:25;4.40;75.80
40085;DHT22;25786;51.504;7.344;2022-11-20T13:34:55;4.50;76.40
40085;DHT22;25786;51.504;7.344;2022-11-20T13:37:25;4.60;75.50
40085;DHT22;25786;51.504;7.344;2022-11-20T13:39:51;4.60;76.60
40085;DHT22;25786;51.504;7.344;2022-11-20T13:42:21;4.70;77.10
40085;DHT22;25786;51.504;7.344;2022-11-20T13:44:53;4.80;76.50
40085;DHT22;25786;51.504;7.344;2022-11-20T13:47:20;4.90;75.50
40085;DHT22;25786;51.504;7.344;2022-11-20T13:49:47;5.00;75.50
40085;DHT22;25786;51.504;7.344;2022-11-20T13:58:27;4.80;74.50
40085;DHT22;25786;51.504;7.344;2022-11-20T14:00:30;4.80;74.50
40085;DHT22;25786;51.504;7.344;2022-11-20T14:03:16;4.90;74.60
40085;DHT22;25786;51.504;7.344;2022-11-20T14:05:56;4.90;75.10
40085;DHT22;25786;51.504;7.344;2022-11-20T14:08:27;4.80;74.00
40085;DHT22;25786;51.504;7.344;2022-11-20T14:11:15;4.70;74.40
40085;DHT22;25786;51.504;7.344;2022-11-20T14:13:51;4.60;75.00
40085;DHT22;25786;51.504;7.344;2022-11-20T14:16:19;4.60;75.90
40085;DHT22;25786;51.504;7.344;2022-11-20T14:18:44;4.60;76.00
40085;DHT22;25786;51.504;7.344;2022-11-20T14:21:10;4.60;75.80
40085;DHT22;25786;51.504;7.344;2022-11-20T14:23:35;4.50;75.80
40085;DHT22;25786;51.504;7.344;2022-11-20T14:26:01;4.40;76.60
40085;DHT22;25786;51.504;7.344;2022-11-20T14:28:27;4.40;76.80
40085;DHT22;25786;51.504;7.344;2022-11-20T14:30:53;4.40;77.30
40085;DHT22;25786;51.504;7.344;2022-11-20T14:33:20;4.50;77.50
40085;DHT22;25786;51.504;7.344;2022-11-20T14:35:51;4.50;77.30
40085;DHT22;25786;51.504;7.344;2022-11-20T14:38:18;4.50;78.00
40085;DHT22;25786;51.504;7.344;2022-11-20T14:40:45;4.50;77.80
40085;DHT22;25786;51.504;7.344;2022-11-20T14:43:18;4.50;77.50
40085;DHT22;25786;51.504;7.344;2022-11-20T14:45:48;4.50;77.70
40085;DHT22;25786;51.504;7.344;2022-11-20T14:48:17;4.50;77.80
40085;DHT22;25786;51.504;7.344;2022-11-20T14:50:45;4.40;77.70
40085;DHT22;25786;51.504;7.344;2022-11-20T14:53:11;4.40;78.10
40085;DHT22;25786;51.504;7.344;2022-11-20T14:56:00;4.50;77.30
40085;DHT22;25786;51.504;7.344;2022-11-20T14:58:28;4.50;77.80
40085;DHT22;25786;51.504;7.344;2022-11-20T15:00:59;4.40;77.80
40085;DHT22;25786;51.504;7.344;2022-11-20T15:03:32;4.40;78.10
40085;DHT22;25786;51.504;7.344;2022-11-20T15:05:57;4.50;78.00
40085;DHT22;25786;51.504;7.344;2022-11-20T15:08:23;4.40;77.90
40085;DHT22;25786;51.504;7.344;2022-11-20T15:10:49;4.40;78.30
40085;DHT22;25786;51.504;7.344;2022-11-20T15:13:16;4.30;78.70
40085;DHT22;25786;51.504;7.344;2022-11-20T15:15:46;4.40;79.40
40085;DHT22;25786;51.504;7.344;2022-11-20T15:18:16;4.40;79.90
40085;DHT22;25786;51.504;7.344;2022-11-20T15:20:43;4.30;80.10
40085;DHT22;25786;51.504;7.344;2022-11-20T15:23:11;4.30;80.50
40085;DHT22;25786;51.504;7.344;2022-11-20T15:25:37;4.30;80.70
40085;DHT22;25786;51.504;7.344;2022-11-20T15:28:04;4.30;80.80
40085;DHT22;25786;51.504;7.344;2022-11-20T15:30:30;4.30;80.90
40085;DHT22;25786;51.504;7.344;2022-11-20T15:32:58;4.30;80.90
40085;DHT22;25786;51.504;7.344;2022-11-20T15:35:24;4.30;80.70
40085;DHT22;25786;51.504;7.344;2022-11-20T15:37:50;4.30;81.00
40085;DHT22;25786;51.504;7.344;2022-11-20T15:40:15;4.30;80.80
40085;DHT22;25786;51.504;7.344;2022-11-20T15:42:42;4.20;80.80
40085;DHT22;25786;51.504;7.344;2022-11-20T15:45:27;4.30;81.20
40085;DHT22;25786;51.504;7.344;2022-11-20T15:47:54;4.20;81.30
40085;DHT22;25786;51.504;7.344;2022-11-20T15:50:19;4.30;80.60
40085;DHT22;25786;51.504;7.344;2022-11-20T15:52:45;4.20;81.10
40085;DHT22;25786;51.504;7.344;2022-11-20T15:55:11;4.10;81.50
40085;DHT22;25786;51.504;7.344;2022-11-20T15:57:36;4.10;81.80
40085;DHT22;25786;51.504;7.344;2022-11-20T16:00:02;4.10;82.30
40085;DHT22;25786;51.504;7.344;2022-11-20T16:02:27;4.00;82.80
40085;DHT22;25786;51.504;7.344;2022-11-20T16:04:53;4.00;83.20
40085;DHT22;25786;51.504;7.344;2022-11-20T16:07:18;4.00;83.60
40085;DHT22;25786;51.504;7.344;2022-11-20T16:09:44;4.00;83.60
40085;DHT22;25786;51.504;7.344;2022-11-20T16:12:09;4.00;83.80
40085;DHT22;25786;51.504;7.344;2022-11-20T16:14:55;4.00;83.90
40085;DHT22;25786;51.504;7.344;2022-11-20T16:17:41;4.00;83.70
40085;DHT22;25786;51.504;7.344;2022-11-20T16:20:10;4.00;83.90
40085;DHT22;25786;51.504;7.344;2022-11-20T16:22:36;4.00;84.10
40085;DHT22;25786;51.504;7.344;2022-11-20T16:25:02;4.00;84.40
40085;DHT22;25786;51.504;7.344;2022-11-20T16:27:27;4.00;84.60
40085;DHT22;25786;51.504;7.344;2022-11-20T16:29:53;4.10;84.80
40085;DHT22;25786;51.504;7.344;2022-11-20T16:32:18;4.10;85.10
40085;DHT22;25786;51.504;7.344;2022-11-20T16:34:43;4.20;85.60
40085;DHT22;25786;51.504;7.344;2022-11-20T16:37:09;4.30;84.90
40085;DHT22;25786;51.504;7.344;2022-11-20T16:39:34;4.30;85.50
40085;DHT22;25786;51.504;7.344;2022-11-20T16:42:03;4.40;85.60
40085;DHT22;25786;51.504;7.344;2022-11-20T16:44:28;4.30;85.20
40085;DHT22;25786;51.504;7.344;2022-11-20T16:46:54;4.30;85.50
40085;DHT22;25786;51.504;7.344;2022-11-20T16:49:19;4.40;85.70
40085;DHT22;25786;51.504;7.344;2022-11-20T16:51:45;4.40;86.10
40085;DHT22;25786;51.504;7.344;2022-11-20T16:54:11;4.50;86.10
40085;DHT22;25786;51.504;7.344;2022-11-20T16:56:36;4.50;86.30
40085;DHT22;25786;51.504;7.344;2022-11-20T16:59:02;4.50;86.10
40085;DHT22;25786;51.504;7.344;2022-11-20T17:01:28;4.50;86.10
40085;DHT22;25786;51.504;7.344;2022-11-20T17:06:20;4.40;86.00
40085;DHT22;25786;51.504;7.344;2022-11-20T17:08:46;4.30;86.00
40085;DHT22;25786;51.504;7.344;2022-11-20T17:11:12;4.20;86.50
40085;DHT22;25786;51.504;7.344;2022-11-20T17:13:38;4.20;86.70
40085;DHT22;25786;51.504;7.344;2022-11-20T17:16:05;4.20;86.70
40085;DHT22;25786;51.504;7.344;2022-11-20T17:18:31;4.20;86.70
40085;DHT22;25786;51.504;7.344;2022-11-20T17:20:56;4.10;87.00
40085;DHT22;25786;51.504;7.344;2022-11-20T17:23:22;4.10;87.30
40085;DHT22;25786;51.504;7.344;2022-11-20T17:25:48;4.20;87.50
40085;DHT22;25786;51.504;7.344;2022-11-20T17:28:14;4.20;87.60
40085;DHT22;25786;51.504;7.344;2022-11-20T17:30:39;4.10;87.80
40085;DHT22;25786;51.504;7.344;2022-11-20T17:33:04;4.10;88.00
40085;DHT22;25786;51.504;7.344;2022-11-20T17:35:30;4.10;88.00
40085;DHT22;25786;51.504;7.344;2022-11-20T17:37:56;4.10;88.20
40085;DHT22;25786;51.504;7.344;2022-11-20T17:40:21;4.10;88.30
40085;DHT22;25786;51.504;7.344;2022-11-20T17:42:47;4.10;88.30
40085;DHT22;25786;51.504;7.344;2022-11-20T17:45:12;4.10;88.50
40085;DHT22;25786;51.504;7.344;2022-11-20T17:47:38;4.20;88.70
40085;DHT22;25786;51.504;7.344;2022-11-20T17:50:03;4.10;88.50